Greeley, IA

2:05 AM CDT on July 12, 2014 (GMT -0500)
Monticello Regional (KMXO) Elev 850 ft | 42.22 °N, 91.16 °W | Change Station

Current weather conditions updated 10 minutes ago

Partly Cloudy
Partly Cloudy
70 °F
Feels Like 70 °F
N
4
Wind Variable Wind from ESE

Today is forecast to be Warmer than yesterday. Thunderstorms.

Today
High -- | Low -- °F
--% Chance of Precip.
Yesterday
High -- | Low -- °F
Precip. -- in
5:38 AM 8:42 PM
Full, 100% visible
Pressure 30.03 in
Visibility 10.0 miles
Clouds Few 2600 ft
Few 3400 ft
Dew Point 68 °F
Humidity 94%
Rainfall 0.00 in
Snow Depth Not available.
UV 0 out of 12
Pollen 2.00 out of 12
Air Quality Not available.
Flu Activity Sporadic
METAR KMXO 120655Z AUTO 11003KT 10SM FEW026 FEW034 21/20 A3003 RMK AO2

More Conditions Fewer Conditions

Pressure 30.03 in
Visibility 10.0 miles
Clouds Few 2600 ft
Few 3400 ft
Dew Point 68 °F
Humidity 94%
Rainfall 0.00 in
Snow Depth Not available.
UV 0 out of 12
Pollen 2.00 out of 12
Air Quality Not available.
Flu Activity Sporadic
METAR KMXO 120655Z AUTO 11003KT 10SM FEW026 FEW034 21/20 A3003 RMK AO2

More Conditions Fewer Conditions

10-Day Weather Forecast

Almanac

Astronomy

Jul. 12, 2014 Rise Set
Actual Time 5:38 AM CDT 8:42 PM CDT
Civil Twilight 5:04 AM CDT 9:16 PM CDT
Nautical Twilight 4:21 AM CDT 10:00 PM CDT
Astronomical Twilight 3:29 AM CDT 10:51 PM CDT
Moon 8:42 PM CDT 6:00 AM CDT
Length of Visible Light 16h 12m
Length of Day
15h 04m
Tomorrow will be 1m 22s shorter.
Full, 100% of the Moon is Illuminated
Today
Full
Jul 12
Full
Jul 18
Last Quarter
Jul 26
New
Aug 3
First Quarter

Today's Extremes

State Highs State Lows

Community

WunderPhotos

Upload Photos

1,732,718 photos uploaded!

Nearby

Snow Depth

Station Depth Elevation
No new snow has been reported.

Earthquake Activity

City Distance Mag. Time & Date
No recent earthquake activity has been reported nearby.
Minimum magnitude displayed is 2.5.

Coastal Water Temperatures

Place Temperature
No Stations Reporting

Nearby Weather Stations

Station Location Temp. Dew Point Humidity Wind Precip. Elev Updated Type
Strawberry Point, IA 69.9 °F 68 °F 92% SE  at  4.0 mph 0.00 in / hr 1220 ft 2:03 AM CDT Normal
South Lake, Farley, IA 68.0 °F 66 °F 95% SSE  at  0.0 mph 0.00 in / hr 1083 ft 2:04 AM CDT Rapid Fire
Jim Greif Farm.1 mile north of, Priarieburg, IA 69.9 °F 68 °F 93% NNE  at  2.0 mph 0.00 in / hr 958 ft 1:58 AM CDT Normal

Show More Stations Show Fewer Stations